Santo Antonio da Patrulha, Brazil
Current Conditions -  °F | °C
As of 7:40 AM on Wednesday 22 Oct 2014 (Local Time) from SBCO Reporting Station
Haze Haze  
Wind Chill: 57°   Ceiling: Unl
Heat Index: 57°   Visibility: 1.2mi
Dew Point: 57°   Wind: 0mph
Humidity: 100%   Direction: NA
Pressure: 30.18"   Gusts: NA
Location:  29.82°S, 50.52°W
Report Text: SBCO 220940Z 00000KT 2000 R12/2000 R30/2000 BR NSC 14/14 Q1022
Loading
Personal Weather Stations






























Interactive Weather Map
Tropical Storm Tracking
New forecast layout! Learn more

10-Day Weather Forecast

Advertisements
Track Severe Weather on mobile